sensor_id;sensor_type;location;lat;lon;timestamp;pressure;altitude;pressure_sealevel;temperature;humidity
15998;BME280;8103;51.340;12.326;2023-04-25T00:00:16;99435.66;;;10.28;69.22
15998;BME280;8103;51.340;12.326;2023-04-25T00:02:43;99427.66;;;10.23;69.54
15998;BME280;8103;51.340;12.326;2023-04-25T00:05:10;99431.38;;;10.22;69.31
15998;BME280;8103;51.340;12.326;2023-04-25T00:07:37;99420.69;;;10.12;69.27
15998;BME280;8103;51.340;12.326;2023-04-25T00:10:06;99421.19;;;9.99;69.95
15998;BME280;8103;51.340;12.326;2023-04-25T00:12:33;99419.84;;;9.87;70.76
15998;BME280;8103;51.340;12.326;2023-04-25T00:15:00;99435.59;;;9.78;71.17
15998;BME280;8103;51.340;12.326;2023-04-25T00:17:27;99423.81;;;9.69;71.66
15998;BME280;8103;51.340;12.326;2023-04-25T00:19:54;99423.00;;;9.64;72.52
15998;BME280;8103;51.340;12.326;2023-04-25T00:22:22;99423.28;;;9.57;72.50
15998;BME280;8103;51.340;12.326;2023-04-25T00:24:52;99427.53;;;9.53;72.96
15998;BME280;8103;51.340;12.326;2023-04-25T00:27:22;99422.44;;;9.47;73.43
15998;BME280;8103;51.340;12.326;2023-04-25T00:29:49;99427.50;;;9.43;73.50
15998;BME280;8103;51.340;12.326;2023-04-25T00:32:19;99429.66;;;9.41;73.50
15998;BME280;8103;51.340;12.326;2023-04-25T00:34:46;99431.50;;;9.36;72.86
15998;BME280;8103;51.340;12.326;2023-04-25T00:37:13;99427.75;;;9.32;73.60
15998;BME280;8103;51.340;12.326;2023-04-25T00:39:40;99433.09;;;9.27;73.33
15998;BME280;8103;51.340;12.326;2023-04-25T00:42:11;99436.53;;;9.22;73.71
15998;BME280;8103;51.340;12.326;2023-04-25T00:44:40;99435.97;;;9.15;73.96
15998;BME280;8103;51.340;12.326;2023-04-25T00:47:10;99428.97;;;9.09;74.32
15998;BME280;8103;51.340;12.326;2023-04-25T00:49:37;99438.06;;;9.03;74.21
15998;BME280;8103;51.340;12.326;2023-04-25T00:52:05;99433.75;;;8.97;74.56
15998;BME280;8103;51.340;12.326;2023-04-25T00:54:31;99436.41;;;8.92;74.95
15998;BME280;8103;51.340;12.326;2023-04-25T00:56:58;99441.75;;;8.92;75.63
15998;BME280;8103;51.340;12.326;2023-04-25T00:59:28;99429.44;;;8.91;75.10
15998;BME280;8103;51.340;12.326;2023-04-25T01:01:58;99427.81;;;8.90;75.31
15998;BME280;8103;51.340;12.326;2023-04-25T01:04:27;99436.13;;;8.94;75.44
15998;BME280;8103;51.340;12.326;2023-04-25T01:06:55;99433.47;;;8.94;75.31
15998;BME280;8103;51.340;12.326;2023-04-25T01:09:22;99434.81;;;8.96;74.83
15998;BME280;8103;51.340;12.326;2023-04-25T01:11:50;99436.44;;;8.97;74.82
15998;BME280;8103;51.340;12.326;2023-04-25T01:14:17;99435.63;;;8.97;74.16
15998;BME280;8103;51.340;12.326;2023-04-25T01:16:44;99426.53;;;8.98;74.59
15998;BME280;8103;51.340;12.326;2023-04-25T01:19:16;99432.13;;;8.96;74.38
15998;BME280;8103;51.340;12.326;2023-04-25T01:21:49;99423.06;;;8.97;74.40
15998;BME280;8103;51.340;12.326;2023-04-25T01:24:17;99425.19;;;8.95;74.44
15998;BME280;8103;51.340;12.326;2023-04-25T01:26:44;99429.72;;;8.95;74.02
15998;BME280;8103;51.340;12.326;2023-04-25T01:29:19;99432.66;;;8.93;73.93
15998;BME280;8103;51.340;12.326;2023-04-25T01:31:46;99427.81;;;8.90;73.50
15998;BME280;8103;51.340;12.326;2023-04-25T01:34:13;99431.81;;;8.88;74.03
15998;BME280;8103;51.340;12.326;2023-04-25T01:36:41;99427.81;;;8.85;73.84
15998;BME280;8103;51.340;12.326;2023-04-25T01:39:08;99436.91;;;8.84;73.52
15998;BME280;8103;51.340;12.326;2023-04-25T01:41:36;99439.56;;;8.84;74.09
15998;BME280;8103;51.340;12.326;2023-04-25T01:44:03;99438.47;;;8.80;73.72
15998;BME280;8103;51.340;12.326;2023-04-25T01:46:30;99432.59;;;8.78;73.64
15998;BME280;8103;51.340;12.326;2023-04-25T01:48:57;99434.16;;;8.74;73.77
15998;BME280;8103;51.340;12.326;2023-04-25T01:51:24;99436.28;;;8.72;73.44
15998;BME280;8103;51.340;12.326;2023-04-25T01:53:52;99433.06;;;8.70;73.22
15998;BME280;8103;51.340;12.326;2023-04-25T01:56:19;99427.19;;;8.68;73.21
15998;BME280;8103;51.340;12.326;2023-04-25T01:58:46;99437.31;;;8.66;73.40
15998;BME280;8103;51.340;12.326;2023-04-25T02:01:13;99429.88;;;8.68;73.10
15998;BME280;8103;51.340;12.326;2023-04-25T02:03:40;99430.38;;;8.65;73.29
15998;BME280;8103;51.340;12.326;2023-04-25T02:06:07;99424.22;;;8.64;73.09
15998;BME280;8103;51.340;12.326;2023-04-25T02:08:34;99427.19;;;8.68;73.18
15998;BME280;8103;51.340;12.326;2023-04-25T02:11:01;99425.56;;;8.67;72.89
15998;BME280;8103;51.340;12.326;2023-04-25T02:13:29;99428.25;;;8.67;72.84
15998;BME280;8103;51.340;12.326;2023-04-25T02:15:57;99419.69;;;8.65;72.85
15998;BME280;8103;51.340;12.326;2023-04-25T02:18:24;99413.53;;;8.64;73.06
15998;BME280;8103;51.340;12.326;2023-04-25T02:20:52;99418.06;;;8.64;72.96
15998;BME280;8103;51.340;12.326;2023-04-25T02:23:19;99418.88;;;8.64;72.82
15998;BME280;8103;51.340;12.326;2023-04-25T02:25:46;99426.06;;;8.64;72.81
15998;BME280;8103;51.340;12.326;2023-04-25T02:28:13;99433.31;;;8.63;72.51
15998;BME280;8103;51.340;12.326;2023-04-25T02:30:40;99424.47;;;8.63;72.86
15998;BME280;8103;51.340;12.326;2023-04-25T02:33:06;99426.84;;;8.59;72.86
15998;BME280;8103;51.340;12.326;2023-04-25T02:35:33;99418.56;;;8.56;72.87
15998;BME280;8103;51.340;12.326;2023-04-25T02:38:00;99424.16;;;8.54;72.44
15998;BME280;8103;51.340;12.326;2023-04-25T02:40:27;99414.00;;;8.51;72.49
15998;BME280;8103;51.340;12.326;2023-04-25T02:42:55;99417.19;;;8.48;72.45
15998;BME280;8103;51.340;12.326;2023-04-25T02:45:22;99421.19;;;8.46;72.51
15998;BME280;8103;51.340;12.326;2023-04-25T02:47:49;99419.03;;;8.43;72.65
15998;BME280;8103;51.340;12.326;2023-04-25T02:50:16;99417.91;;;8.39;72.85
15998;BME280;8103;51.340;12.326;2023-04-25T02:52:45;99414.69;;;8.37;73.10
15998;BME280;8103;51.340;12.326;2023-04-25T02:55:13;99413.59;;;8.33;73.40
15998;BME280;8103;51.340;12.326;2023-04-25T02:57:40;99412.50;;;8.29;73.30
15998;BME280;8103;51.340;12.326;2023-04-25T03:00:07;99411.97;;;8.27;73.68
15998;BME280;8103;51.340;12.326;2023-04-25T03:02:35;99407.38;;;8.22;74.02
15998;BME280;8103;51.340;12.326;2023-04-25T03:05:01;99415.63;;;8.21;74.43
15998;BME280;8103;51.340;12.326;2023-04-25T03:07:29;99414.00;;;8.20;74.70
15998;BME280;8103;51.340;12.326;2023-04-25T03:09:56;99426.31;;;8.21;74.71
15998;BME280;8103;51.340;12.326;2023-04-25T03:12:23;99419.59;;;8.18;74.42
15998;BME280;8103;51.340;12.326;2023-04-25T03:14:50;99420.09;;;8.15;74.39
15998;BME280;8103;51.340;12.326;2023-04-25T03:17:17;99413.41;;;8.13;74.44
15998;BME280;8103;51.340;12.326;2023-04-25T03:19:44;99414.19;;;8.08;74.64
15998;BME280;8103;51.340;12.326;2023-04-25T03:22:11;99414.44;;;8.07;74.63
15998;BME280;8103;51.340;12.326;2023-04-25T03:24:38;99418.41;;;8.04;75.02
15998;BME280;8103;51.340;12.326;2023-04-25T03:27:05;99418.94;;;8.01;75.08
15998;BME280;8103;51.340;12.326;2023-04-25T03:29:31;99417.31;;;8.00;74.94
15998;BME280;8103;51.340;12.326;2023-04-25T03:31:58;99428.25;;;7.99;75.30
15998;BME280;8103;51.340;12.326;2023-04-25T03:34:25;99416.47;;;7.95;75.28
15998;BME280;8103;51.340;12.326;2023-04-25T03:36:53;99413.50;;;7.91;75.50
15998;BME280;8103;51.340;12.326;2023-04-25T03:39:19;99412.69;;;7.91;75.42
15998;BME280;8103;51.340;12.326;2023-04-25T03:41:47;99407.34;;;7.91;75.27
15998;BME280;8103;51.340;12.326;2023-04-25T03:44:14;99413.19;;;7.88;75.34
15998;BME280;8103;51.340;12.326;2023-04-25T03:46:41;99417.75;;;7.87;74.99
15998;BME280;8103;51.340;12.326;2023-04-25T03:49:08;99412.09;;;7.84;75.01
15998;BME280;8103;51.340;12.326;2023-04-25T03:51:35;99408.88;;;7.82;75.02
15998;BME280;8103;51.340;12.326;2023-04-25T03:54:02;99410.50;;;7.83;74.88
15998;BME280;8103;51.340;12.326;2023-04-25T03:56:30;99406.22;;;7.82;74.72
15998;BME280;8103;51.340;12.326;2023-04-25T03:58:57;99416.34;;;7.80;75.03
15998;BME280;8103;51.340;12.326;2023-04-25T04:01:26;99411.25;;;7.78;75.16
15998;BME280;8103;51.340;12.326;2023-04-25T04:03:53;99416.03;;;7.76;74.88
15998;BME280;8103;51.340;12.326;2023-04-25T04:06:20;99410.69;;;7.76;75.02
15998;BME280;8103;51.340;12.326;2023-04-25T04:08:47;99406.69;;;7.74;75.14
15998;BME280;8103;51.340;12.326;2023-04-25T04:11:14;99416.84;;;7.77;75.30
15998;BME280;8103;51.340;12.326;2023-04-25T04:13:42;99425.38;;;7.79;75.51
15998;BME280;8103;51.340;12.326;2023-04-25T04:16:09;99419.00;;;7.80;75.72
15998;BME280;8103;51.340;12.326;2023-04-25T04:18:37;99418.75;;;7.81;75.19
15998;BME280;8103;51.340;12.326;2023-04-25T04:21:04;99417.69;;;7.82;75.41
15998;BME280;8103;51.340;12.326;2023-04-25T04:23:30;99419.84;;;7.85;75.17
15998;BME280;8103;51.340;12.326;2023-04-25T04:25:58;99424.94;;;7.87;75.01
15998;BME280;8103;51.340;12.326;2023-04-25T04:28:25;99424.69;;;7.88;75.00
15998;BME280;8103;51.340;12.326;2023-04-25T04:30:53;99431.94;;;7.93;75.13
15998;BME280;8103;51.340;12.326;2023-04-25T04:33:22;99437.56;;;7.96;74.71
15998;BME280;8103;51.340;12.326;2023-04-25T04:35:52;99438.38;;;7.97;74.50
15998;BME280;8103;51.340;12.326;2023-04-25T04:38:20;99438.38;;;7.97;74.60
15998;BME280;8103;51.340;12.326;2023-04-25T04:40:48;99437.88;;;8.00;74.35
15998;BME280;8103;51.340;12.326;2023-04-25T04:43:15;99441.09;;;8.02;74.17
15998;BME280;8103;51.340;12.326;2023-04-25T04:45:43;99442.19;;;8.06;74.02
15998;BME280;8103;51.340;12.326;2023-04-25T04:48:12;99439.00;;;8.09;74.11
15998;BME280;8103;51.340;12.326;2023-04-25T04:50:42;99440.09;;;8.13;73.50
15998;BME280;8103;51.340;12.326;2023-04-25T04:53:11;99439.03;;;8.14;73.46
15998;BME280;8103;51.340;12.326;2023-04-25T04:55:39;99441.75;;;8.19;73.23
15998;BME280;8103;51.340;12.326;2023-04-25T04:58:08;99448.22;;;8.23;73.20
15998;BME280;8103;51.340;12.326;2023-04-25T05:00:35;99442.38;;;8.26;72.76
15998;BME280;8103;51.340;12.326;2023-04-25T05:03:02;99446.13;;;8.30;72.92
15998;BME280;8103;51.340;12.326;2023-04-25T05:05:32;99455.00;;;8.35;72.66
15998;BME280;8103;51.340;12.326;2023-04-25T05:07:59;99453.19;;;8.41;72.14
15998;BME280;8103;51.340;12.326;2023-04-25T05:10:26;99455.66;;;8.47;72.50
15998;BME280;8103;51.340;12.326;2023-04-25T05:12:53;99453.81;;;8.53;71.94
15998;BME280;8103;51.340;12.326;2023-04-25T05:15:20;99453.28;;;8.56;71.76
15998;BME280;8103;51.340;12.326;2023-04-25T05:17:47;99456.50;;;8.58;71.56
15998;BME280;8103;51.340;12.326;2023-04-25T05:20:14;99452.28;;;8.62;71.92
15998;BME280;8103;51.340;12.326;2023-04-25T05:22:41;99455.78;;;8.68;71.48
15998;BME280;8103;51.340;12.326;2023-04-25T05:25:09;99444.28;;;8.67;71.75
15998;BME280;8103;51.340;12.326;2023-04-25T05:27:38;99451.78;;;8.70;71.61
15998;BME280;8103;51.340;12.326;2023-04-25T05:30:05;99451.03;;;8.80;71.80
15998;BME280;8103;51.340;12.326;2023-04-25T05:32:33;99456.69;;;8.88;71.66
15998;BME280;8103;51.340;12.326;2023-04-25T05:39:07;99453.84;;;9.10;70.76
15998;BME280;8103;51.340;12.326;2023-04-25T05:41:34;99452.00;;;9.15;70.33
15998;BME280;8103;51.340;12.326;2023-04-25T05:44:01;99448.03;;;9.23;69.74
15998;BME280;8103;51.340;12.326;2023-04-25T05:46:32;99461.16;;;9.29;70.45
15998;BME280;8103;51.340;12.326;2023-04-25T05:48:59;99454.44;;;10.18;77.31
15998;BME280;8103;51.340;12.326;2023-04-25T05:51:26;99446.59;;;10.82;71.70
15998;BME280;8103;51.340;12.326;2023-04-25T05:53:54;99451.50;;;11.39;70.97
15998;BME280;8103;51.340;12.326;2023-04-25T05:56:21;99453.41;;;11.87;67.25
15998;BME280;8103;51.340;12.326;2023-04-25T05:58:48;99454.81;;;12.13;64.90
15998;BME280;8103;51.340;12.326;2023-04-25T06:01:15;99476.59;;;12.45;63.72
15998;BME280;8103;51.340;12.326;2023-04-25T06:03:42;99471.63;;;12.62;62.53
15998;BME280;8103;51.340;12.326;2023-04-25T06:06:11;99471.00;;;12.70;59.07
15998;BME280;8103;51.340;12.326;2023-04-25T06:08:38;99477.19;;;12.42;57.17
15998;BME280;8103;51.340;12.326;2023-04-25T06:11:05;99480.81;;;11.84;59.35
15998;BME280;8103;51.340;12.326;2023-04-25T06:13:33;99480.75;;;11.40;60.08
15998;BME280;8103;51.340;12.326;2023-04-25T06:15:59;99489.16;;;11.09;61.12
15998;BME280;8103;51.340;12.326;2023-04-25T06:18:28;99482.75;;;10.95;61.90
15998;BME280;8103;51.340;12.326;2023-04-25T06:20:56;99486.25;;;10.95;62.10
15998;BME280;8103;51.340;12.326;2023-04-25T06:23:23;99491.59;;;11.00;62.21
15998;BME280;8103;51.340;12.326;2023-04-25T06:25:50;99487.56;;;11.08;61.32
15998;BME280;8103;51.340;12.326;2023-04-25T06:28:16;99489.97;;;11.09;61.78
15998;BME280;8103;51.340;12.326;2023-04-25T06:30:43;99485.88;;;11.27;61.09
15998;BME280;8103;51.340;12.326;2023-04-25T06:33:10;99488.53;;;11.42;60.51
15998;BME280;8103;51.340;12.326;2023-04-25T06:35:37;99491.69;;;11.49;60.24
15998;BME280;8103;51.340;12.326;2023-04-25T06:38:04;99494.34;;;11.59;60.36
15998;BME280;8103;51.340;12.326;2023-04-25T06:40:31;99500.81;;;11.53;60.50
15998;BME280;8103;51.340;12.326;2023-04-25T06:42:58;99502.13;;;11.60;60.35
15998;BME280;8103;51.340;12.326;2023-04-25T06:45:26;99491.69;;;11.64;60.22
15998;BME280;8103;51.340;12.326;2023-04-25T06:47:53;99496.78;;;11.65;59.72
15998;BME280;8103;51.340;12.326;2023-04-25T06:50:20;99499.06;;;11.87;59.88
15998;BME280;8103;51.340;12.326;2023-04-25T06:52:47;99500.47;;;12.18;58.79
15998;BME280;8103;51.340;12.326;2023-04-25T06:55:14;99498.53;;;12.28;58.78
15998;BME280;8103;51.340;12.326;2023-04-25T06:57:41;99493.06;;;12.38;58.83
15998;BME280;8103;51.340;12.326;2023-04-25T07:00:09;99497.00;;;12.51;58.47
15998;BME280;8103;51.340;12.326;2023-04-25T07:02:37;99498.69;;;12.42;58.23
15998;BME280;8103;51.340;12.326;2023-04-25T07:05:05;99503.34;;;12.31;58.98
15998;BME280;8103;51.340;12.326;2023-04-25T07:07:32;99509.34;;;12.18;58.86
15998;BME280;8103;51.340;12.326;2023-04-25T07:09:59;99515.06;;;12.07;58.86
15998;BME280;8103;51.340;12.326;2023-04-25T07:12:26;99519.91;;;12.05;59.08
15998;BME280;8103;51.340;12.326;2023-04-25T07:14:53;99522.13;;;11.98;59.86
15998;BME280;8103;51.340;12.326;2023-04-25T07:17:19;99508.97;;;11.91;60.17
15998;BME280;8103;51.340;12.326;2023-04-25T07:19:46;99519.97;;;11.95;59.39
15998;BME280;8103;51.340;12.326;2023-04-25T07:22:13;99520.00;;;11.85;60.32
15998;BME280;8103;51.340;12.326;2023-04-25T07:24:40;99524.84;;;11.88;60.07
15998;BME280;8103;51.340;12.326;2023-04-25T07:27:07;99521.91;;;11.84;60.30
15998;BME280;8103;51.340;12.326;2023-04-25T07:29:34;99521.03;;;11.94;59.68
15998;BME280;8103;51.340;12.326;2023-04-25T07:32:04;99525.91;;;11.92;60.01
15998;BME280;8103;51.340;12.326;2023-04-25T07:34:34;99530.47;;;11.91;59.96
15998;BME280;8103;51.340;12.326;2023-04-25T07:37:06;99529.97;;;11.84;60.51
15998;BME280;8103;51.340;12.326;2023-04-25T07:39:33;99533.22;;;11.76;60.56
15998;BME280;8103;51.340;12.326;2023-04-25T07:41:59;99531.41;;;11.67;61.05
15998;BME280;8103;51.340;12.326;2023-04-25T07:44:26;99535.69;;;11.68;60.54
15998;BME280;8103;51.340;12.326;2023-04-25T07:46:54;99541.66;;;11.45;61.05
15998;BME280;8103;51.340;12.326;2023-04-25T07:49:20;99537.91;;;11.36;61.33
15998;BME280;8103;51.340;12.326;2023-04-25T07:51:47;99535.81;;;11.23;62.39
15998;BME280;8103;51.340;12.326;2023-04-25T07:54:15;99548.97;;;11.19;62.58
15998;BME280;8103;51.340;12.326;2023-04-25T07:56:42;99551.13;;;11.17;62.96
15998;BME280;8103;51.340;12.326;2023-04-25T07:59:18;99553.28;;;11.15;62.62
15998;BME280;8103;51.340;12.326;2023-04-25T08:01:45;99557.84;;;11.05;62.85
15998;BME280;8103;51.340;12.326;2023-04-25T08:04:12;99560.53;;;10.90;63.80
15998;BME280;8103;51.340;12.326;2023-04-25T08:06:40;99566.19;;;10.93;63.37
15998;BME280;8103;51.340;12.326;2023-04-25T08:09:07;99566.44;;;11.02;61.11
15998;BME280;8103;51.340;12.326;2023-04-25T08:11:37;99575.78;;;11.19;60.11
15998;BME280;8103;51.340;12.326;2023-04-25T08:14:05;99572.28;;;11.44;59.23
15998;BME280;8103;51.340;12.326;2023-04-25T08:16:32;99574.38;;;11.67;57.71
15998;BME280;8103;51.340;12.326;2023-04-25T08:19:00;99579.66;;;11.87;55.90
15998;BME280;8103;51.340;12.326;2023-04-25T08:21:27;99582.00;;;12.03;54.72
15998;BME280;8103;51.340;12.326;2023-04-25T08:23:54;99579.94;;;12.29;53.32
15998;BME280;8103;51.340;12.326;2023-04-25T08:26:28;99580.88;;;12.53;52.48
15998;BME280;8103;51.340;12.326;2023-04-25T08:28:55;99591.00;;;12.66;51.18
15998;BME280;8103;51.340;12.326;2023-04-25T08:31:22;99585.41;;;12.96;50.49
15998;BME280;8103;51.340;12.326;2023-04-25T08:33:49;99595.91;;;12.93;49.53
15998;BME280;8103;51.340;12.326;2023-04-25T08:36:18;99601.69;;;12.76;49.58
15998;BME280;8103;51.340;12.326;2023-04-25T08:39:01;99598.88;;;12.57;49.78
15998;BME280;8103;51.340;12.326;2023-04-25T08:41:28;99607.84;;;12.43;51.03
15998;BME280;8103;51.340;12.326;2023-04-25T08:43:56;99599.78;;;12.43;51.17
15998;BME280;8103;51.340;12.326;2023-04-25T08:46:24;99604.53;;;12.51;51.11
15998;BME280;8103;51.340;12.326;2023-04-25T08:48:59;99609.25;;;12.74;51.18
15998;BME280;8103;51.340;12.326;2023-04-25T08:51:31;99613.69;;;12.55;50.97
15998;BME280;8103;51.340;12.326;2023-04-25T08:54:13;99624.53;;;12.40;51.28
15998;BME280;8103;51.340;12.326;2023-04-25T08:56:45;99633.06;;;12.52;51.62
15998;BME280;8103;51.340;12.326;2023-04-25T08:59:14;99635.88;;;12.70;50.15
15998;BME280;8103;51.340;12.326;2023-04-25T09:01:41;99640.75;;;13.07;49.65
15998;BME280;8103;51.340;12.326;2023-04-25T09:04:08;99639.84;;;13.50;48.63
15998;BME280;8103;51.340;12.326;2023-04-25T09:06:35;99636.06;;;13.98;47.73
15998;BME280;8103;51.340;12.326;2023-04-25T09:09:07;99635.50;;;14.01;47.42
15998;BME280;8103;51.340;12.326;2023-04-25T09:11:36;99635.78;;;14.42;46.78
15998;BME280;8103;51.340;12.326;2023-04-25T09:14:19;99646.28;;;14.62;46.50
15998;BME280;8103;51.340;12.326;2023-04-25T09:19:28;99650.91;;;14.61;46.22
15998;BME280;8103;51.340;12.326;2023-04-25T09:22:06;99656.31;;;14.61;45.61
15998;BME280;8103;51.340;12.326;2023-04-25T09:24:44;99661.63;;;14.85;45.01
15998;BME280;8103;51.340;12.326;2023-04-25T09:27:20;99666.22;;;14.84;44.56
15998;BME280;8103;51.340;12.326;2023-04-25T09:29:58;99672.06;;;14.54;45.09
15998;BME280;8103;51.340;12.326;2023-04-25T09:32:27;99667.72;;;14.35;45.76
15998;BME280;8103;51.340;12.326;2023-04-25T09:34:57;99677.41;;;14.12;46.38
15998;BME280;8103;51.340;12.326;2023-04-25T09:37:29;99684.44;;;13.85;47.61
15998;BME280;8103;51.340;12.326;2023-04-25T09:39:59;99681.78;;;13.56;48.79
15998;BME280;8103;51.340;12.326;2023-04-25T09:42:29;99683.03;;;13.40;49.65
15998;BME280;8103;51.340;12.326;2023-04-25T09:45:00;99687.91;;;13.33;50.64
15998;BME280;8103;51.340;12.326;2023-04-25T09:47:37;99682.94;;;13.50;50.85
15998;BME280;8103;51.340;12.326;2023-04-25T09:50:17;99681.25;;;13.54;50.66
15998;BME280;8103;51.340;12.326;2023-04-25T09:52:45;99682.25;;;13.63;50.89
15998;BME280;8103;51.340;12.326;2023-04-25T09:55:12;99686.19;;;13.99;50.60
15998;BME280;8103;51.340;12.326;2023-04-25T09:57:43;99687.50;;;14.02;49.69
15998;BME280;8103;51.340;12.326;2023-04-25T10:00:12;99689.97;;;13.98;49.01
15998;BME280;8103;51.340;12.326;2023-04-25T10:02:42;99684.31;;;14.23;48.59
15998;BME280;8103;51.340;12.326;2023-04-25T10:05:13;99688.38;;;14.21;48.46
15998;BME280;8103;51.340;12.326;2023-04-25T10:07:40;99692.66;;;13.98;49.02
15998;BME280;8103;51.340;12.326;2023-04-25T10:10:08;99688.69;;;13.67;49.35
15998;BME280;8103;51.340;12.326;2023-04-25T10:12:39;99693.19;;;13.43;49.59
15998;BME280;8103;51.340;12.326;2023-04-25T10:15:09;99703.03;;;13.29;50.03
15998;BME280;8103;51.340;12.326;2023-04-25T10:17:38;99693.00;;;13.06;51.07
15998;BME280;8103;51.340;12.326;2023-04-25T10:20:06;99701.66;;;12.93;51.26
15998;BME280;8103;51.340;12.326;2023-04-25T10:22:42;99701.09;;;13.01;51.25
15998;BME280;8103;51.340;12.326;2023-04-25T10:25:10;99697.56;;;13.39;49.83
15998;BME280;8103;51.340;12.326;2023-04-25T10:27:39;99692.94;;;13.73;49.62
15998;BME280;8103;51.340;12.326;2023-04-25T10:30:13;99692.72;;;13.93;48.94
15998;BME280;8103;51.340;12.326;2023-04-25T10:32:43;99692.00;;;13.83;48.45
15998;BME280;8103;51.340;12.326;2023-04-25T10:35:16;99694.22;;;13.81;48.96
15998;BME280;8103;51.340;12.326;2023-04-25T10:38:04;99692.13;;;13.73;49.06
15998;BME280;8103;51.340;12.326;2023-04-25T10:40:33;99697.28;;;13.69;49.13
15998;BME280;8103;51.340;12.326;2023-04-25T10:46:33;99691.41;;;13.62;49.47
15998;BME280;8103;51.340;12.326;2023-04-25T10:49:03;99702.28;;;13.52;49.56
15998;BME280;8103;51.340;12.326;2023-04-25T10:51:34;99700.78;;;13.41;50.06
15998;BME280;8103;51.340;12.326;2023-04-25T10:54:23;99700.25;;;13.39;50.18
15998;BME280;8103;51.340;12.326;2023-04-25T10:56:52;99703.41;;;13.46;50.45
15998;BME280;8103;51.340;12.326;2023-04-25T10:59:19;99706.81;;;13.57;50.19
15998;BME280;8103;51.340;12.326;2023-04-25T11:01:52;99700.03;;;13.64;50.04
15998;BME280;8103;51.340;12.326;2023-04-25T11:07:33;99715.63;;;13.39;50.57
15998;BME280;8103;51.340;12.326;2023-04-25T11:10:03;99711.06;;;13.34;50.31
15998;BME280;8103;51.340;12.326;2023-04-25T11:12:34;99712.34;;;13.08;50.59
15998;BME280;8103;51.340;12.326;2023-04-25T11:15:04;99706.47;;;13.01;50.45
15998;BME280;8103;51.340;12.326;2023-04-25T11:17:32;99711.41;;;12.84;50.91
15998;BME280;8103;51.340;12.326;2023-04-25T11:20:00;99717.47;;;12.61;51.93
15998;BME280;8103;51.340;12.326;2023-04-25T11:22:27;99733.06;;;12.54;51.71
15998;BME280;8103;51.340;12.326;2023-04-25T11:24:55;99727.75;;;12.44;52.19
15998;BME280;8103;51.340;12.326;2023-04-25T11:27:22;99734.00;;;12.24;51.83
15998;BME280;8103;51.340;12.326;2023-04-25T11:29:51;99740.75;;;12.12;52.30
15998;BME280;8103;51.340;12.326;2023-04-25T11:32:20;99734.28;;;12.18;51.91
15998;BME280;8103;51.340;12.326;2023-04-25T11:34:47;99733.16;;;12.34;51.66
15998;BME280;8103;51.340;12.326;2023-04-25T11:37:15;99731.19;;;12.49;50.83
15998;BME280;8103;51.340;12.326;2023-04-25T11:39:45;99733.38;;;12.47;48.51
15998;BME280;8103;51.340;12.326;2023-04-25T11:42:15;99736.25;;;12.66;48.37
15998;BME280;8103;51.340;12.326;2023-04-25T11:44:43;99740.16;;;12.88;47.92
15998;BME280;8103;51.340;12.326;2023-04-25T11:47:10;99736.59;;;13.03;47.03
15998;BME280;8103;51.340;12.326;2023-04-25T11:49:37;99741.91;;;13.13;45.66
15998;BME280;8103;51.340;12.326;2023-04-25T11:52:06;99739.22;;;13.18;44.81
15998;BME280;8103;51.340;12.326;2023-04-25T11:54:38;99742.97;;;13.17;44.81
15998;BME280;8103;51.340;12.326;2023-04-25T11:57:05;99738.13;;;13.14;44.77
15998;BME280;8103;51.340;12.326;2023-04-25T11:59:31;99745.16;;;13.15;45.18
15998;BME280;8103;51.340;12.326;2023-04-25T12:01:59;99743.88;;;13.03;45.12
15998;BME280;8103;51.340;12.326;2023-04-25T12:04:30;99752.22;;;13.01;45.29
15998;BME280;8103;51.340;12.326;2023-04-25T12:06:59;99752.66;;;13.18;44.96
15998;BME280;8103;51.340;12.326;2023-04-25T12:09:31;99754.81;;;13.16;44.72
15998;BME280;8103;51.340;12.326;2023-04-25T12:12:00;99751.88;;;13.13;45.22
15998;BME280;8103;51.340;12.326;2023-04-25T12:14:34;99755.94;;;13.49;44.40
15998;BME280;8103;51.340;12.326;2023-04-25T12:17:03;99754.34;;;14.52;42.29
15998;BME280;8103;51.340;12.326;2023-04-25T12:19:34;99749.81;;;14.89;40.85
15998;BME280;8103;51.340;12.326;2023-04-25T12:26:08;99753.19;;;14.11;41.88
15998;BME280;8103;51.340;12.326;2023-04-25T12:32:37;99754.25;;;13.19;44.37
15998;BME280;8103;51.340;12.326;2023-04-25T12:35:05;99756.53;;;13.02;45.25
15998;BME280;8103;51.340;12.326;2023-04-25T12:37:33;99758.16;;;12.93;45.56
15998;BME280;8103;51.340;12.326;2023-04-25T12:40:00;99754.69;;;12.87;45.80
15998;BME280;8103;51.340;12.326;2023-04-25T12:42:27;99754.94;;;12.91;44.60
15998;BME280;8103;51.340;12.326;2023-04-25T12:44:55;99757.66;;;12.86;44.52
15998;BME280;8103;51.340;12.326;2023-04-25T12:47:22;99764.63;;;12.92;44.45
15998;BME280;8103;51.340;12.326;2023-04-25T12:49:51;99769.28;;;12.76;44.40
15998;BME280;8103;51.340;12.326;2023-04-25T12:52:18;99770.16;;;12.62;43.25
15998;BME280;8103;51.340;12.326;2023-04-25T12:54:46;99769.72;;;12.40;43.09
15998;BME280;8103;51.340;12.326;2023-04-25T12:57:13;99771.63;;;12.24;42.19
15998;BME280;8103;51.340;12.326;2023-04-25T12:59:40;99775.16;;;12.20;42.37
15998;BME280;8103;51.340;12.326;2023-04-25T13:02:07;99772.44;;;12.25;42.33
15998;BME280;8103;51.340;12.326;2023-04-25T13:04:34;99779.41;;;12.26;42.32
15998;BME280;8103;51.340;12.326;2023-04-25T13:07:01;99778.59;;;12.30;42.26
15998;BME280;8103;51.340;12.326;2023-04-25T13:09:28;99776.72;;;12.31;41.42
15998;BME280;8103;51.340;12.326;2023-04-25T13:11:55;99782.91;;;12.31;41.09
15998;BME280;8103;51.340;12.326;2023-04-25T13:14:23;99774.03;;;12.36;40.82
15998;BME280;8103;51.340;12.326;2023-04-25T13:16:50;99784.25;;;12.34;40.70
15998;BME280;8103;51.340;12.326;2023-04-25T13:19:17;99781.81;;;12.32;40.26
15998;BME280;8103;51.340;12.326;2023-04-25T13:21:44;99787.41;;;12.51;39.85
15998;BME280;8103;51.340;12.326;2023-04-25T13:24:12;99776.97;;;12.98;39.39
15998;BME280;8103;51.340;12.326;2023-04-25T13:26:39;99783.66;;;14.40;37.83
15998;BME280;8103;51.340;12.326;2023-04-25T13:29:06;99778.41;;;15.65;34.64
15998;BME280;8103;51.340;12.326;2023-04-25T13:31:33;99785.75;;;16.10;33.27